createdAt,value
2018-06-08T00:00:49.413Z,0
2018-06-08T00:01:49.991Z,0
2018-06-08T00:02:50.568Z,0
2018-06-08T00:03:51.150Z,0
2018-06-08T00:04:51.725Z,0
2018-06-08T00:05:52.313Z,0
2018-06-08T00:06:52.892Z,0
2018-06-08T00:07:53.480Z,0
2018-06-08T00:08:54.059Z,0
2018-06-08T00:09:54.636Z,0
2018-06-08T00:10:55.213Z,0
2018-06-08T00:11:55.790Z,0
2018-06-08T00:12:56.368Z,0
2018-06-08T00:13:56.945Z,0
2018-06-08T00:14:57.535Z,0
2018-06-08T00:15:58.112Z,0
2018-06-08T00:16:58.688Z,0
2018-06-08T00:17:59.265Z,0
2018-06-08T00:18:59.843Z,0
2018-06-08T00:20:00.421Z,0
2018-06-08T00:21:00.999Z,0
2018-06-08T00:22:01.576Z,0
2018-06-08T00:23:02.167Z,0
2018-06-08T00:24:02.752Z,0
2018-06-08T00:25:03.339Z,0
2018-06-08T00:26:03.919Z,0
2018-06-08T00:27:04.498Z,0
2018-06-08T00:28:05.076Z,0
2018-06-08T00:29:05.655Z,0
2018-06-08T00:30:06.233Z,0
2018-06-08T00:31:06.822Z,0
2018-06-08T00:32:07.411Z,0
2018-06-08T00:33:08.000Z,0
2018-06-08T00:34:08.578Z,0
2018-06-08T00:35:09.156Z,0
2018-06-08T00:36:09.734Z,0
2018-06-08T00:37:10.313Z,0
2018-06-08T00:38:10.903Z,0
2018-06-08T00:39:11.479Z,0
2018-06-08T00:40:12.058Z,0
2018-06-08T00:41:12.646Z,0
2018-06-08T00:42:13.222Z,0
2018-06-08T00:43:13.801Z,0
2018-06-08T00:44:14.379Z,0
2018-06-08T00:45:14.957Z,0
2018-06-08T00:46:15.534Z,0
2018-06-08T00:47:16.111Z,0
2018-06-08T00:48:16.688Z,0
2018-06-08T00:49:17.266Z,0
2018-06-08T00:50:17.846Z,0
2018-06-08T00:51:18.424Z,0
2018-06-08T00:52:19.003Z,0
2018-06-08T00:53:19.584Z,0
2018-06-08T00:54:20.159Z,0
2018-06-08T00:55:20.752Z,0
2018-06-08T00:56:21.327Z,0
2018-06-08T00:57:21.905Z,0
2018-06-08T00:58:22.482Z,0
2018-06-08T00:59:23.059Z,0
2018-06-08T01:00:23.640Z,0
2018-06-08T01:01:24.227Z,0
2018-06-08T01:02:24.807Z,0
2018-06-08T01:03:25.382Z,0
2018-06-08T01:04:25.959Z,0
2018-06-08T01:05:26.536Z,0
2018-06-08T01:06:27.127Z,0
2018-06-08T01:07:27.708Z,0
2018-06-08T01:08:28.282Z,0
2018-06-08T01:09:28.859Z,0
2018-06-08T01:10:29.437Z,0
2018-06-08T01:11:30.021Z,0
2018-06-08T01:12:30.606Z,0
2018-06-08T01:13:31.197Z,0
2018-06-08T01:14:31.774Z,0
2018-06-08T01:15:32.352Z,0
2018-06-08T01:16:32.931Z,0
2018-06-08T01:17:33.509Z,0
2018-06-08T01:18:34.099Z,0
2018-06-08T01:19:34.685Z,0
2018-06-08T01:20:35.265Z,0
2018-06-08T01:21:35.844Z,0
2018-06-08T01:22:36.426Z,0
2018-06-08T01:23:37.000Z,0
2018-06-08T01:24:37.576Z,0
2018-06-08T01:25:38.153Z,0
2018-06-08T01:26:38.728Z,0
2018-06-08T01:27:39.305Z,0
2018-06-08T01:28:39.882Z,0
2018-06-08T01:29:40.459Z,0
2018-06-08T01:30:41.038Z,0
2018-06-08T01:31:41.614Z,0
2018-06-08T01:32:42.194Z,0
2018-06-08T01:33:42.784Z,0
2018-06-08T01:34:43.362Z,0
2018-06-08T01:35:43.941Z,0
2018-06-08T01:36:44.517Z,0
2018-06-08T01:37:57.833Z,0
2018-06-08T01:38:58.410Z,0
2018-06-08T01:39:58.988Z,0
2018-06-08T01:40:59.576Z,0
2018-06-08T01:42:00.154Z,0
2018-06-08T01:43:00.740Z,0
2018-06-08T01:44:01.317Z,0
2018-06-08T01:45:01.900Z,0
2018-06-08T01:46:02.481Z,0
2018-06-08T01:47:03.059Z,0
2018-06-08T01:48:03.635Z,0
2018-06-08T01:49:04.212Z,0
2018-06-08T01:50:04.788Z,0
2018-06-08T01:51:05.365Z,0
2018-06-08T01:52:05.944Z,0
2018-06-08T01:53:06.519Z,0
2018-06-08T01:54:07.099Z,0
2018-06-08T01:55:07.675Z,0
2018-06-08T01:56:08.254Z,0
2018-06-08T01:57:08.830Z,0
2018-06-08T01:58:09.409Z,0
2018-06-08T01:59:09.985Z,0
2018-06-08T02:00:10.562Z,0
2018-06-08T02:01:11.139Z,0
2018-06-08T02:02:11.726Z,0
2018-06-08T02:03:12.304Z,0
2018-06-08T02:04:12.881Z,0
2018-06-08T02:05:13.459Z,0
2018-06-08T02:06:14.035Z,0
2018-06-08T02:07:14.615Z,0
2018-06-08T02:08:15.192Z,0
2018-06-08T02:09:15.765Z,0
2018-06-08T02:10:16.341Z,0
2018-06-08T02:11:16.918Z,0
2018-06-08T02:12:17.497Z,0
2018-06-08T02:13:18.075Z,0
2018-06-08T02:14:18.655Z,0
2018-06-08T02:15:19.229Z,0
2018-06-08T02:16:19.807Z,0
2018-06-08T02:17:20.383Z,0
2018-06-08T02:18:20.959Z,0
2018-06-08T02:19:21.537Z,0
2018-06-08T02:20:22.113Z,0
2018-06-08T02:21:22.689Z,0
2018-06-08T02:22:23.266Z,0
2018-06-08T02:23:23.841Z,0
2018-06-08T02:24:24.419Z,0
2018-06-08T02:25:24.999Z,0
2018-06-08T02:26:25.579Z,0
2018-06-08T02:27:26.153Z,0
2018-06-08T02:28:26.729Z,0
2018-06-08T02:29:27.307Z,0
2018-06-08T02:30:27.896Z,0
2018-06-08T02:31:28.481Z,0
2018-06-08T02:32:29.069Z,0
2018-06-08T02:33:29.647Z,0
2018-06-08T02:34:30.225Z,0
2018-06-08T02:35:30.800Z,0
2018-06-08T02:36:31.376Z,0
2018-06-08T02:37:31.953Z,0
2018-06-08T02:38:32.532Z,0
2018-06-08T02:39:33.106Z,0
2018-06-08T02:40:33.682Z,0
2018-06-08T02:41:34.258Z,0
2018-06-08T02:42:34.836Z,0
2018-06-08T02:43:35.414Z,0
2018-06-08T02:44:36.000Z,0
2018-06-08T02:45:36.577Z,0
2018-06-08T02:46:37.154Z,0
2018-06-08T02:47:37.728Z,0
2018-06-08T02:48:38.316Z,0
2018-06-08T02:49:38.897Z,0
2018-06-08T02:50:39.481Z,0
2018-06-08T02:51:40.062Z,0
2018-06-08T02:52:40.636Z,0
2018-06-08T02:53:41.213Z,0
2018-06-08T02:54:41.801Z,0
2018-06-08T02:55:42.389Z,0
2018-06-08T02:56:42.964Z,0
2018-06-08T02:57:43.542Z,0
2018-06-08T02:58:44.128Z,0
2018-06-08T02:59:44.715Z,0
2018-06-08T03:00:45.292Z,0
2018-06-08T03:01:45.879Z,0
2018-06-08T03:02:46.456Z,0
2018-06-08T03:03:47.032Z,0
2018-06-08T03:04:47.619Z,0
2018-06-08T03:05:48.197Z,0
2018-06-08T03:06:48.773Z,0
2018-06-08T03:07:49.351Z,0
2018-06-08T03:08:49.936Z,0
2018-06-08T03:09:50.515Z,0
2018-06-08T03:10:51.093Z,0
2018-06-08T03:11:51.669Z,0
2018-06-08T03:12:52.245Z,0
2018-06-08T03:13:52.822Z,0
2018-06-08T03:14:53.399Z,0
2018-06-08T03:15:53.974Z,0
2018-06-08T03:16:54.551Z,0
2018-06-08T03:17:55.128Z,0
2018-06-08T03:18:55.707Z,0
2018-06-08T03:19:56.285Z,0
2018-06-08T03:20:56.864Z,0
2018-06-08T03:21:57.441Z,0
2018-06-08T03:22:58.018Z,0
2018-06-08T03:23:58.596Z,0
2018-06-08T03:24:59.184Z,0
2018-06-08T03:25:59.761Z,0
2018-06-08T03:27:00.337Z,0
2018-06-08T03:28:00.914Z,0
2018-06-08T03:29:01.503Z,0
2018-06-08T03:30:02.092Z,0
2018-06-08T03:31:02.680Z,0
2018-06-08T03:32:03.255Z,0
2018-06-08T03:33:03.832Z,0
2018-06-08T03:34:04.420Z,0
2018-06-08T03:35:04.999Z,0
2018-06-08T03:36:05.627Z,0
2018-06-08T03:37:06.153Z,0
2018-06-08T03:38:06.729Z,0
2018-06-08T03:39:07.307Z,0
2018-06-08T03:40:07.887Z,0
2018-06-08T03:41:08.475Z,0
2018-06-08T03:42:09.056Z,0
2018-06-08T03:43:09.632Z,0
2018-06-08T03:44:10.210Z,0
2018-06-08T03:45:10.789Z,0
2018-06-08T03:46:11.366Z,0
2018-06-08T03:47:11.945Z,0
2018-06-08T03:48:12.521Z,0
2018-06-08T03:49:13.099Z,0
2018-06-08T03:50:13.679Z,0
2018-06-08T03:51:14.256Z,0
2018-06-08T03:52:14.836Z,0
2018-06-08T03:53:15.413Z,0
2018-06-08T03:54:15.990Z,0
2018-06-08T03:55:16.578Z,0
2018-06-08T03:56:17.154Z,0
2018-06-08T03:57:17.733Z,0
2018-06-08T03:58:18.310Z,0
2018-06-08T03:59:18.886Z,0
2018-06-08T04:00:19.463Z,0
2018-06-08T04:01:20.040Z,0
2018-06-08T04:02:20.642Z,0
2018-06-08T04:03:21.195Z,0
2018-06-08T04:04:21.776Z,0
2018-06-08T04:05:22.352Z,0
2018-06-08T04:06:22.929Z,0
2018-06-08T04:07:23.507Z,0
2018-06-08T04:08:24.084Z,0
2018-06-08T04:09:24.662Z,0
2018-06-08T04:10:25.261Z,0
2018-06-08T04:11:25.827Z,0
2018-06-08T04:12:26.404Z,0
2018-06-08T04:13:26.981Z,0
2018-06-08T04:14:27.561Z,0
2018-06-08T04:15:28.150Z,0
2018-06-08T04:16:28.726Z,0
2018-06-08T04:17:29.307Z,0
2018-06-08T04:18:29.882Z,0
2018-06-08T04:19:30.460Z,0
2018-06-08T04:20:31.037Z,0
2018-06-08T04:21:31.616Z,0
2018-06-08T04:22:32.199Z,0
2018-06-08T04:23:32.779Z,5
2018-06-08T04:24:33.361Z,5
2018-06-08T04:25:33.937Z,5
2018-06-08T04:26:34.516Z,5
2018-06-08T04:27:35.094Z,5
2018-06-08T04:28:35.672Z,5
2018-06-08T04:29:36.253Z,5
2018-06-08T04:30:36.842Z,5
2018-06-08T04:31:37.422Z,5
2018-06-08T04:32:38.002Z,5
2018-06-08T04:33:38.581Z,5
2018-06-08T04:34:39.159Z,5
2018-06-08T04:35:39.737Z,5
2018-06-08T04:36:40.315Z,5
2018-06-08T04:37:40.907Z,5
2018-06-08T04:38:41.483Z,5
2018-06-08T04:39:42.062Z,5
2018-06-08T04:40:42.643Z,5
2018-06-08T04:41:43.222Z,5
2018-06-08T04:42:43.802Z,5
2018-06-08T04:43:44.379Z,5
2018-06-08T04:44:44.958Z,5
2018-06-08T04:45:45.539Z,5
2018-06-08T04:46:46.118Z,5
2018-06-08T04:47:46.699Z,5
2018-06-08T04:48:47.277Z,5
2018-06-08T04:49:47.856Z,5
2018-06-08T04:50:48.437Z,5
2018-06-08T04:51:49.018Z,5
2018-06-08T04:52:49.599Z,5
2018-06-08T04:53:50.175Z,5
2018-06-08T04:54:50.752Z,5
2018-06-08T04:55:51.336Z,5
2018-06-08T04:56:51.912Z,5
2018-06-08T04:57:52.493Z,5
2018-06-08T04:58:53.072Z,5
2018-06-08T04:59:53.650Z,5
2018-06-08T05:00:54.231Z,5
2018-06-08T05:01:54.820Z,5
2018-06-08T05:02:55.402Z,5
2018-06-08T05:03:55.980Z,5
2018-06-08T05:04:56.558Z,5
2018-06-08T05:05:57.137Z,5
2018-06-08T05:06:57.716Z,5
2018-06-08T05:07:58.294Z,5
2018-06-08T05:08:58.873Z,5
2018-06-08T05:09:59.451Z,5
2018-06-08T05:11:00.041Z,5
2018-06-08T05:12:00.629Z,5
2018-06-08T05:13:01.207Z,5
2018-06-08T05:14:01.786Z,5
2018-06-08T05:15:02.364Z,5
2018-06-08T05:16:02.945Z,5
2018-06-08T05:17:03.524Z,5
2018-06-08T05:18:04.103Z,5
2018-06-08T05:19:04.681Z,5
2018-06-08T05:20:05.259Z,5
2018-06-08T05:21:05.850Z,5
2018-06-08T05:22:06.428Z,5
2018-06-08T05:23:07.010Z,5
2018-06-08T05:24:07.596Z,5
2018-06-08T05:25:08.179Z,5
2018-06-08T05:26:08.781Z,5
2018-06-08T05:27:09.334Z,5
2018-06-08T05:28:09.922Z,5
2018-06-08T05:29:10.500Z,5
2018-06-08T05:30:11.078Z,5
2018-06-08T05:31:11.659Z,5
2018-06-08T05:32:12.237Z,5
2018-06-08T05:33:12.817Z,5
2018-06-08T05:34:13.395Z,5
2018-06-08T05:35:13.973Z,5
2018-06-08T05:36:14.604Z,5
2018-06-08T05:37:15.139Z,10
2018-06-08T05:38:15.714Z,10
2018-06-08T05:39:16.294Z,10
2018-06-08T05:40:16.873Z,10
2018-06-08T05:41:17.454Z,10
2018-06-08T05:42:18.033Z,10
2018-06-08T05:43:18.614Z,10
2018-06-08T05:44:19.194Z,10
2018-06-08T05:45:19.774Z,10
2018-06-08T05:46:20.358Z,10
2018-06-08T05:47:20.934Z,10
2018-06-08T05:48:21.593Z,10
2018-06-08T05:49:22.093Z,10
2018-06-08T05:50:22.674Z,10
2018-06-08T05:51:23.255Z,10
2018-06-08T05:52:23.834Z,10
2018-06-08T05:53:24.416Z,10
2018-06-08T05:54:24.998Z,10
2018-06-08T05:55:25.576Z,10
2018-06-08T05:56:26.161Z,10
2018-06-08T05:57:26.735Z,15
2018-06-08T05:58:27.317Z,15
2018-06-08T05:59:27.896Z,15
2018-06-08T06:00:28.476Z,15
2018-06-08T06:01:29.055Z,15
2018-06-08T06:02:29.636Z,15
2018-06-08T06:03:30.215Z,15
2018-06-08T06:04:30.796Z,15
2018-06-08T06:05:31.375Z,15
2018-06-08T06:06:31.955Z,15
2018-06-08T06:07:32.537Z,15
2018-06-08T06:08:33.127Z,15
2018-06-08T06:09:33.706Z,15
2018-06-08T06:10:34.288Z,15
2018-06-08T06:11:34.868Z,15
2018-06-08T06:12:35.447Z,15
2018-06-08T06:13:36.028Z,15
2018-06-08T06:14:36.606Z,15
2018-06-08T06:15:37.185Z,15
2018-06-08T06:16:37.764Z,15
2018-06-08T06:17:38.345Z,15
2018-06-08T06:18:38.926Z,15
2018-06-08T06:19:39.503Z,15
2018-06-08T06:20:40.084Z,15
2018-06-08T06:21:40.673Z,15
2018-06-08T06:22:41.253Z,15
2018-06-08T06:23:41.832Z,15
2018-06-08T06:24:42.414Z,15
2018-06-08T06:25:42.992Z,15
2018-06-08T06:26:43.572Z,15
2018-06-08T06:27:44.151Z,15
2018-06-08T06:28:44.731Z,15
2018-06-08T06:29:45.311Z,15
2018-06-08T06:30:45.889Z,15
2018-06-08T06:31:46.473Z,15
2018-06-08T06:32:47.048Z,15
2018-06-08T06:33:47.638Z,15
2018-06-08T06:34:48.216Z,15
2018-06-08T06:35:48.798Z,15
2018-06-08T06:36:49.377Z,15
2018-06-08T06:37:49.967Z,15
2018-06-08T06:38:50.549Z,15
2018-06-08T06:39:51.131Z,15
2018-06-08T06:40:51.717Z,15
2018-06-08T06:41:52.299Z,15
2018-06-08T06:42:52.877Z,15
2018-06-08T06:43:53.457Z,15
2018-06-08T06:44:54.079Z,15
2018-06-08T06:45:54.616Z,15
2018-06-08T06:46:55.197Z,15
2018-06-08T06:47:55.778Z,15
2018-06-08T06:48:56.367Z,15
2018-06-08T06:49:56.958Z,15
2018-06-08T06:50:57.539Z,15
2018-06-08T06:51:58.122Z,10
2018-06-08T06:52:58.700Z,10
2018-06-08T06:53:59.281Z,10
2018-06-08T06:54:59.860Z,10
2018-06-08T06:56:00.440Z,10
2018-06-08T06:57:01.030Z,10
2018-06-08T06:58:01.609Z,10
2018-06-08T06:59:02.189Z,10
2018-06-08T07:00:02.770Z,10
2018-06-08T07:01:03.351Z,10
2018-06-08T07:02:03.932Z,10
2018-06-08T07:03:04.511Z,10
2018-06-08T07:04:05.092Z,10
2018-06-08T07:05:05.676Z,10
2018-06-08T07:06:06.259Z,10
2018-06-08T07:07:06.831Z,10
2018-06-08T07:08:07.412Z,10
2018-06-08T07:09:07.996Z,10
2018-06-08T07:10:08.573Z,10
2018-06-08T07:11:09.154Z,10
2018-06-08T07:12:09.733Z,10
2018-06-08T07:13:10.315Z,10
2018-06-08T07:14:10.905Z,10
2018-06-08T07:15:11.490Z,15
2018-06-08T07:16:12.068Z,15
2018-06-08T07:17:12.647Z,15
2018-06-08T07:18:13.226Z,15
2018-06-08T07:19:13.808Z,15
2018-06-08T07:20:14.389Z,15
2018-06-08T07:21:14.969Z,15
2018-06-08T07:22:15.549Z,15
2018-06-08T07:23:16.131Z,15
2018-06-08T07:24:16.713Z,15
2018-06-08T07:25:17.290Z,15
2018-06-08T07:26:17.870Z,15
2018-06-08T07:27:18.448Z,20
2018-06-08T07:28:19.040Z,20
2018-06-08T07:29:19.620Z,20
2018-06-08T07:30:20.201Z,20
2018-06-08T07:31:20.791Z,20
2018-06-08T07:32:21.372Z,20
2018-06-08T07:33:21.953Z,20
2018-06-08T07:34:22.533Z,20
2018-06-08T07:35:23.112Z,20
2018-06-08T07:36:23.692Z,20
2018-06-08T07:37:24.273Z,20
2018-06-08T07:38:24.853Z,20
2018-06-08T07:39:25.433Z,20
2018-06-08T07:40:26.028Z,20
2018-06-08T07:41:26.605Z,20
2018-06-08T07:42:27.185Z,20
2018-06-08T07:43:27.774Z,20
2018-06-08T07:44:28.355Z,20
2018-06-08T07:45:28.935Z,20
2018-06-08T07:46:29.519Z,20
2018-06-08T07:47:30.106Z,20
2018-06-08T07:48:30.688Z,20
2018-06-08T07:49:31.281Z,20
2018-06-08T07:50:31.859Z,20
2018-06-08T07:51:32.441Z,20
2018-06-08T07:52:33.020Z,20
2018-06-08T07:53:33.600Z,20
2018-06-08T07:54:34.181Z,20
2018-06-08T07:55:34.763Z,20
2018-06-08T07:56:35.343Z,20
2018-06-08T07:57:35.931Z,20
2018-06-08T07:58:36.510Z,20
2018-06-08T07:59:37.091Z,20
2018-06-08T08:00:37.671Z,20
2018-06-08T08:01:38.253Z,20
2018-06-08T08:02:38.833Z,20
2018-06-08T08:03:39.421Z,20
2018-06-08T08:04:39.993Z,20
2018-06-08T08:05:40.572Z,20
2018-06-08T08:06:41.163Z,20
2018-06-08T08:07:41.744Z,20
2018-06-08T08:08:42.326Z,15
2018-06-08T08:09:42.964Z,15
2018-06-08T08:10:43.500Z,15
2018-06-08T08:11:44.152Z,15
2018-06-08T08:12:44.665Z,15
2018-06-08T08:13:45.246Z,15
2018-06-08T08:14:45.836Z,15
2018-06-08T08:15:46.417Z,15
2018-06-08T08:16:46.997Z,15
2018-06-08T08:17:47.589Z,15
2018-06-08T08:18:48.171Z,15
2018-06-08T08:19:48.751Z,15
2018-06-08T08:20:49.330Z,15
2018-06-08T08:21:49.922Z,15
2018-06-08T08:22:50.501Z,15
2018-06-08T08:23:51.093Z,15
2018-06-08T08:24:51.673Z,15
2018-06-08T08:25:52.296Z,15
2018-06-08T08:26:52.834Z,15
2018-06-08T08:27:53.416Z,15
2018-06-08T08:28:53.996Z,15
2018-06-08T08:29:54.575Z,20
2018-06-08T08:30:55.155Z,20
2018-06-08T08:31:55.739Z,20
2018-06-08T08:32:56.317Z,20
2018-06-08T08:33:56.902Z,20
2018-06-08T08:34:57.478Z,20
2018-06-08T08:35:58.060Z,20
2018-06-08T08:36:58.640Z,20
2018-06-08T08:37:59.221Z,20
2018-06-08T08:38:59.813Z,20
2018-06-08T08:40:00.393Z,25
2018-06-08T08:41:00.973Z,25
2018-06-08T08:42:01.553Z,25
2018-06-08T08:43:02.145Z,25
2018-06-08T08:44:02.725Z,25
2018-06-08T08:45:03.324Z,25
2018-06-08T08:46:03.909Z,25
2018-06-08T08:47:04.488Z,25
2018-06-08T08:48:05.069Z,25
2018-06-08T08:49:05.652Z,25
2018-06-08T08:50:06.233Z,25
2018-06-08T08:51:06.812Z,25
2018-06-08T08:52:07.393Z,25
2018-06-08T08:53:07.973Z,25
2018-06-08T08:54:08.555Z,30
2018-06-08T08:55:09.136Z,35
2018-06-08T08:56:09.717Z,30
2018-06-08T08:57:10.296Z,30
2018-06-08T08:58:10.877Z,30
2018-06-08T08:59:11.467Z,30
2018-06-08T09:00:12.051Z,30
2018-06-08T09:01:12.629Z,30
2018-06-08T09:02:13.211Z,30
2018-06-08T09:03:13.792Z,30
2018-06-08T09:04:14.371Z,35
2018-06-08T09:05:14.953Z,30
2018-06-08T09:06:15.538Z,30
2018-06-08T09:07:16.115Z,30
2018-06-08T13:22:52.614Z,10
2018-06-08T13:23:53.193Z,10
2018-06-08T13:24:53.783Z,10
2018-06-08T13:25:54.359Z,10
2018-06-08T13:26:54.943Z,10
2018-06-08T13:27:55.517Z,10
2018-06-08T13:28:56.095Z,10
2018-06-08T13:29:56.676Z,10
2018-06-08T13:30:57.253Z,10
2018-06-08T13:31:57.831Z,10
2018-06-08T13:32:58.445Z,15
2018-06-08T13:33:58.990Z,15
2018-06-08T13:34:59.568Z,15
2018-06-08T13:36:00.146Z,15
2018-06-08T13:37:00.726Z,15
2018-06-08T13:38:01.316Z,15
2018-06-08T13:39:01.896Z,15
2018-06-08T13:40:02.475Z,20
2018-06-08T13:41:03.065Z,20
2018-06-08T13:42:03.654Z,25
2018-06-08T13:43:04.234Z,25
2018-06-08T13:44:04.811Z,25
2018-06-08T13:45:05.391Z,30
2018-06-08T13:46:05.970Z,30
2018-06-08T13:47:06.549Z,30
2018-06-08T13:48:07.129Z,30
2018-06-08T13:49:07.705Z,35
2018-06-08T13:50:08.287Z,35
2018-06-08T13:51:08.863Z,35
2018-06-08T13:52:09.443Z,35
2018-06-08T13:53:10.023Z,35
2018-06-08T13:54:10.602Z,35
2018-06-08T13:55:11.193Z,35
2018-06-08T13:56:11.782Z,35
2018-06-08T13:57:12.364Z,35
2018-06-08T13:58:12.942Z,35
2018-06-08T13:59:13.522Z,35
2018-06-08T14:00:14.099Z,35
2018-06-08T14:01:14.679Z,35
2018-06-08T14:02:15.266Z,35
2018-06-08T14:03:15.857Z,30
2018-06-08T14:04:16.436Z,30
2018-06-08T14:05:17.026Z,30
2018-06-08T14:06:17.606Z,30
2018-06-08T14:07:18.185Z,30
2018-06-08T14:08:18.765Z,30
2018-06-08T14:09:19.345Z,30
2018-06-08T14:10:19.924Z,30
2018-06-08T14:11:20.508Z,30
2018-06-08T14:12:21.097Z,30
2018-06-08T14:13:21.679Z,30
2018-06-08T14:14:22.255Z,30
2018-06-08T14:15:22.853Z,30
2018-06-08T14:16:23.438Z,30
2018-06-08T14:17:24.013Z,35
2018-06-08T14:18:24.600Z,35
2018-06-08T14:19:25.175Z,35
2018-06-08T14:20:25.756Z,35
2018-06-08T14:21:26.337Z,35
2018-06-08T14:22:26.928Z,35
2018-06-08T14:23:27.507Z,40
2018-06-08T14:24:28.089Z,40
2018-06-08T14:25:28.671Z,45
2018-06-08T14:26:29.256Z,50
2018-06-08T14:27:29.883Z,55
2018-06-08T14:28:30.422Z,50
2018-06-08T14:29:31.009Z,45
2018-06-08T14:30:31.590Z,50
2018-06-08T14:31:32.167Z,50
2018-06-08T14:32:32.747Z,60
2018-06-08T14:33:33.329Z,65
2018-06-08T14:34:33.911Z,65
2018-06-08T14:35:34.493Z,65
2018-06-08T14:36:35.086Z,80
2018-06-08T14:37:35.668Z,80
2018-06-08T14:38:36.248Z,75
2018-06-08T14:39:36.828Z,75
2018-06-08T14:40:37.411Z,75
2018-06-08T14:41:37.994Z,75
2018-06-08T14:42:38.574Z,75
2018-06-08T14:43:39.156Z,75
2018-06-08T14:44:39.736Z,75
2018-06-08T14:45:40.323Z,75
2018-06-08T14:46:40.902Z,75
2018-06-08T14:47:41.516Z,65
2018-06-08T14:48:42.075Z,55
2018-06-08T14:49:42.657Z,70
2018-06-08T14:50:43.258Z,70
2018-06-08T14:51:43.841Z,70
2018-06-08T14:52:44.423Z,70
2018-06-08T14:53:45.031Z,65
2018-06-08T14:54:45.627Z,55
2018-06-08T14:55:46.209Z,40
2018-06-08T14:56:46.794Z,40
2018-06-08T14:57:47.372Z,35
2018-06-08T14:58:47.966Z,40
2018-06-08T14:59:48.547Z,35
2018-06-08T15:00:49.145Z,35
2018-06-08T15:01:49.728Z,35
2018-06-08T15:02:50.306Z,35
2018-06-08T15:03:50.887Z,30
2018-06-08T15:04:51.477Z,30
2018-06-08T15:05:52.058Z,30
2018-06-08T15:06:52.640Z,30
2018-06-08T15:07:53.218Z,30
2018-06-08T15:08:53.800Z,30
2018-06-08T15:09:54.384Z,30
2018-06-08T15:10:54.969Z,30
2018-06-08T15:11:55.547Z,30
2018-06-08T15:12:56.129Z,30
2018-06-08T15:13:56.709Z,30
2018-06-08T15:14:57.290Z,30
2018-06-08T15:15:57.872Z,30
2018-06-08T15:16:58.457Z,30
2018-06-08T15:17:59.035Z,30
2018-06-08T15:18:59.628Z,30
2018-06-08T15:20:00.209Z,30
2018-06-08T15:21:00.800Z,35
2018-06-08T15:22:01.382Z,35
2018-06-08T15:23:02.031Z,40
2018-06-08T15:24:02.568Z,55
2018-06-08T15:25:03.149Z,60
2018-06-08T15:26:03.732Z,40
2018-06-08T15:27:04.312Z,45
2018-06-08T15:28:04.893Z,60
2018-06-08T15:29:05.485Z,45
2018-06-08T15:30:06.068Z,40
2018-06-08T15:31:06.648Z,50
2018-06-08T15:32:07.230Z,40
2018-06-08T15:33:07.810Z,40
2018-06-08T15:34:08.393Z,40
2018-06-08T15:35:08.976Z,50
2018-06-08T15:36:09.556Z,55
2018-06-08T15:37:10.139Z,70
2018-06-08T15:38:10.722Z,75
2018-06-08T15:39:11.304Z,60
2018-06-08T15:40:11.886Z,45
2018-06-08T15:41:12.469Z,40
2018-06-08T15:42:13.051Z,35
2018-06-08T15:43:13.644Z,40
2018-06-08T15:44:14.237Z,40
2018-06-08T15:45:14.822Z,40
2018-06-08T15:46:15.404Z,40
2018-06-08T15:47:15.987Z,40
2018-06-08T15:48:16.637Z,40
2018-06-08T15:49:17.164Z,40
2018-06-08T15:50:17.754Z,40
2018-06-08T15:51:18.338Z,35
2018-06-08T15:52:18.920Z,35
2018-06-08T15:53:19.502Z,40
2018-06-08T15:54:20.095Z,35
2018-06-08T15:55:20.676Z,35
2018-06-08T15:56:21.260Z,35
2018-06-08T15:57:21.844Z,35
2018-06-08T15:58:22.435Z,35
2018-06-08T15:59:23.018Z,30
2018-06-08T16:00:23.598Z,30
2018-06-08T16:01:24.179Z,30
2018-06-08T16:02:24.761Z,30
2018-06-08T16:03:25.343Z,30
2018-06-08T16:04:25.923Z,30
2018-06-08T16:05:26.502Z,30
2018-06-08T16:06:27.084Z,30
2018-06-08T16:07:27.667Z,30
2018-06-08T16:08:28.247Z,30
2018-06-08T16:09:28.828Z,30
2018-06-08T16:10:29.411Z,30
2018-06-08T16:11:29.993Z,40
2018-06-08T16:12:30.576Z,60
2018-06-08T16:13:31.157Z,50
2018-06-08T16:14:31.740Z,60
2018-06-08T16:15:32.324Z,70
2018-06-08T16:16:32.908Z,75
2018-06-08T16:17:33.489Z,75
2018-06-08T16:18:34.074Z,75
2018-06-08T16:19:34.655Z,80
2018-06-08T16:20:35.240Z,75
2018-06-08T16:21:35.832Z,80
2018-06-08T16:22:36.481Z,80
2018-06-08T16:23:37.002Z,85
2018-06-08T16:24:37.584Z,85
2018-06-08T16:25:38.169Z,85
2018-06-08T16:26:38.751Z,85
2018-06-08T16:27:39.334Z,85
2018-06-08T16:28:39.918Z,85
2018-06-08T16:29:40.499Z,85
2018-06-08T16:30:41.081Z,85
2018-06-08T16:31:41.675Z,85
2018-06-08T16:32:42.257Z,85
2018-06-08T16:33:42.839Z,85
2018-06-08T16:34:43.424Z,85
2018-06-08T16:35:44.007Z,85
2018-06-08T16:36:44.591Z,85
2018-06-08T16:37:45.177Z,85
2018-06-08T16:38:45.756Z,80
2018-06-08T16:39:46.339Z,80
2018-06-08T16:40:46.923Z,80
2018-06-08T16:41:47.585Z,80
2018-06-08T16:42:48.088Z,80
2018-06-08T16:43:48.673Z,75
2018-06-08T16:44:49.256Z,75
2018-06-08T16:45:49.839Z,75
2018-06-08T16:46:50.422Z,75
2018-06-08T16:47:51.005Z,75
2018-06-08T16:48:51.590Z,75
2018-06-08T16:49:52.171Z,75
2018-06-08T16:50:52.755Z,75
2018-06-08T16:51:53.338Z,75
2018-06-08T16:52:53.921Z,75
2018-06-08T16:53:54.503Z,75
2018-06-08T16:54:55.088Z,75
2018-06-08T16:55:55.729Z,70
2018-06-08T16:56:56.252Z,70
2018-06-08T16:57:56.837Z,70
2018-06-08T16:58:57.420Z,70
2018-06-08T16:59:58.003Z,65
2018-06-08T17:00:58.588Z,70
2018-06-08T17:01:59.171Z,70
2018-06-08T17:02:59.755Z,65
2018-06-08T17:04:00.337Z,65
2018-06-08T17:05:00.921Z,65
2018-06-08T17:06:01.511Z,65
2018-06-08T17:07:02.089Z,65
2018-06-08T17:08:02.675Z,65
2018-06-08T17:09:03.257Z,65
2018-06-08T17:10:03.852Z,65
2018-06-08T17:11:04.434Z,65
2018-06-08T17:12:05.023Z,60
2018-06-08T17:13:05.613Z,60
2018-06-08T17:14:06.195Z,60
2018-06-08T17:15:06.790Z,60
2018-06-08T17:16:07.374Z,60
2018-06-08T17:17:07.955Z,55
2018-06-08T17:18:08.570Z,60
2018-06-08T17:19:09.122Z,60
2018-06-08T17:20:09.707Z,55
2018-06-08T17:21:10.288Z,50
2018-06-08T17:22:10.872Z,50
2018-06-08T17:23:11.454Z,60
2018-06-08T17:24:12.039Z,55
2018-06-08T17:25:12.623Z,55
2018-06-08T17:26:13.206Z,60
2018-06-08T17:27:13.791Z,60
2018-06-08T17:28:14.375Z,60
2018-06-08T17:29:14.958Z,60
2018-06-08T17:30:15.542Z,60
2018-06-08T17:31:16.176Z,60
2018-06-08T17:32:16.710Z,60
2018-06-08T17:33:17.292Z,60
2018-06-08T17:34:17.880Z,55
2018-06-08T17:35:18.473Z,55
2018-06-08T17:36:19.053Z,55
2018-06-08T17:37:19.636Z,55
2018-06-08T17:38:20.221Z,50
2018-06-08T17:39:20.814Z,45
2018-06-08T17:40:21.396Z,35
2018-06-08T17:41:21.979Z,30
2018-06-08T17:42:22.561Z,25
2018-06-08T17:43:23.141Z,20
2018-06-08T17:44:23.726Z,20
2018-06-08T17:45:24.317Z,20
2018-06-08T17:46:24.910Z,15
2018-06-08T17:47:25.492Z,15
2018-06-08T17:48:26.083Z,15
2018-06-08T17:49:26.664Z,15
2018-06-08T17:50:27.246Z,10
2018-06-08T17:51:27.829Z,10
2018-06-08T17:52:28.411Z,10
2018-06-08T17:53:28.994Z,10
2018-06-08T17:54:29.575Z,10
2018-06-08T17:55:30.156Z,10
2018-06-08T17:56:30.739Z,10
2018-06-08T17:57:31.324Z,10
2018-06-08T17:58:31.966Z,10
2018-06-08T17:59:32.511Z,10
2018-06-08T18:00:33.091Z,10
2018-06-08T18:01:33.687Z,10
2018-06-08T18:02:34.265Z,10
2018-06-08T18:03:34.857Z,10
2018-06-08T18:04:35.427Z,10
2018-06-08T18:05:36.009Z,10
2018-06-08T18:06:36.604Z,10
2018-06-08T18:07:37.181Z,10
2018-06-08T18:08:37.763Z,10
2018-06-08T18:09:38.345Z,10
2018-06-08T18:10:38.927Z,10
2018-06-08T18:11:39.507Z,10
2018-06-08T18:12:40.090Z,10
2018-06-08T18:13:40.671Z,10
2018-06-08T18:14:41.252Z,10
2018-06-08T18:15:41.833Z,10
2018-06-08T18:16:42.415Z,10
2018-06-08T18:17:43.028Z,10
2018-06-08T18:18:43.577Z,10
2018-06-08T18:19:44.158Z,10
2018-06-08T18:20:44.741Z,10
2018-06-08T18:21:45.322Z,10
2018-06-08T18:22:45.904Z,10
2018-06-08T18:23:46.495Z,10
2018-06-08T18:24:47.077Z,5
2018-06-08T18:25:47.654Z,5
2018-06-08T18:26:48.232Z,5
2018-06-08T18:27:48.812Z,5
2018-06-08T18:28:49.394Z,5
2018-06-08T18:29:49.973Z,5
2018-06-08T18:30:50.555Z,5
2018-06-08T18:31:51.134Z,5
2018-06-08T18:32:51.724Z,5
2018-06-08T18:33:52.308Z,5
2018-06-08T18:34:52.883Z,5
2018-06-08T18:35:53.475Z,5
2018-06-08T18:36:54.054Z,5
2018-06-08T18:37:54.635Z,5
2018-06-08T18:38:55.225Z,5
2018-06-08T18:39:55.840Z,5
2018-06-08T18:40:56.382Z,5
2018-06-08T18:41:56.971Z,5
2018-06-08T18:42:57.551Z,5
2018-06-08T18:43:58.130Z,5
2018-06-08T18:44:58.708Z,5
2018-06-08T18:45:59.290Z,5
2018-06-08T18:46:59.873Z,0
2018-06-08T18:48:00.451Z,0
2018-06-08T18:49:01.042Z,0
2018-06-08T18:50:01.620Z,0
2018-06-08T18:51:02.198Z,0
2018-06-08T18:52:02.776Z,0